Mingo, West Virginia
Current Conditions -  °F | °C
As of 4:51 PM on Thursday 23 Oct 2014 (Local Time) from KEKN Reporting Station
Overcast Overcast  
Wind Chill: 45°   Ceiling: 1600
Heat Index: 48°   Visibility: 10mi
Dew Point: 44°   Wind: 7mph
Humidity: 86%   Direction: 300°WNW
Pressure: 30.1"   Gusts: NA
Location:  38.5201°N, 80.0382°W
Report Text: KEKN 232051Z AUTO 30006KT 10SM OVC016 09/07 A3010 RMK AO2 SLP203 T00890067 56007 TSNO
Loading
Personal Weather Stations






























Interactive Weather Map New forecast layout! Learn more

10-Day Weather Forecast

Advertisements
Track Severe Weather on mobile